Time;durP1;ratioP1;P1;durP2;ratioP2;P2;SDS_P1;SDS_P2;PMS_P1;PMS_P2;Temp;Humidity;BMP_temperature;BMP_pressure;BME280_temperature;BME280_humidity;BME280_pressure;Samples;Min_cycle;Max_cycle;Signal;HPM_P1;HPM_P2
2021/01/15 00:01:39;;;;;;;21.90;12.70;;;4.00;99.90;;;;;;5074455;28;20040;-70
2021/01/15 00:04:05;;;;;;;23.98;12.45;;;4.00;99.90;;;;;;5074113;28;20028;-70
2021/01/15 00:06:31;;;;;;;22.48;11.38;;;4.10;99.90;;;;;;5074122;28;20020;-69
2021/01/15 00:08:58;;;;;;;29.50;13.48;;;4.10;99.90;;;;;;5076151;28;20023;-70
2021/01/15 00:11:25;;;;;;;23.08;12.93;;;4.00;99.90;;;;;;5074126;28;20103;-71
2021/01/15 00:13:52;;;;;;;26.35;12.32;;;4.10;99.90;;;;;;5072641;28;20083;-70
2021/01/15 00:16:22;;;;;;;28.02;12.85;;;4.20;99.90;;;;;;5074356;28;20044;-69
2021/01/15 00:18:49;;;;;;;27.17;12.30;;;4.10;99.80;;;;;;5073920;28;20037;-71
2021/01/15 00:21:31;;;;;;;24.08;12.93;;;4.10;99.90;;;;;;5073920;28;20069;-70
2021/01/15 00:23:58;;;;;;;22.85;12.57;;;4.10;99.90;;;;;;5073415;28;20033;-70
2021/01/15 00:26:27;;;;;;;24.33;12.15;;;4.10;99.80;;;;;;5073641;28;20132;-69
2021/01/15 00:28:53;;;;;;;25.48;13.70;;;4.10;99.70;;;;;;5074036;28;20029;-70
2021/01/15 00:31:20;;;;;;;23.40;12.73;;;4.00;99.70;;;;;;5073666;28;20025;-69
2021/01/15 00:33:46;;;;;;;23.85;12.52;;;4.00;99.80;;;;;;5073344;28;20516;-71
2021/01/15 00:36:13;;;;;;;23.67;13.43;;;4.00;99.80;;;;;;5075299;28;20095;-70
2021/01/15 00:38:39;;;;;;;29.33;13.18;;;4.00;99.80;;;;;;5073541;28;20148;-69
2021/01/15 00:41:07;;;;;;;23.13;12.65;;;4.00;99.80;;;;;;5073827;28;20127;-69
2021/01/15 00:43:34;;;;;;;28.08;13.05;;;4.00;99.80;;;;;;5073752;28;20048;-69
2021/01/15 00:46:00;;;;;;;23.55;12.20;;;4.00;99.80;;;;;;5072451;28;20481;-69
2021/01/15 00:48:26;;;;;;;25.48;12.18;;;4.00;99.80;;;;;;5074005;28;20111;-69
2021/01/15 00:50:52;;;;;;;27.02;12.73;;;4.10;99.80;;;;;;5072277;28;20143;-70
2021/01/15 00:53:18;;;;;;;23.55;13.20;;;4.00;99.70;;;;;;5057845;28;20466;-69
2021/01/15 00:55:43;;;;;;;24.02;12.10;;;4.10;99.90;;;;;;5063763;28;20056;-70
2021/01/15 00:58:13;;;;;;;21.55;11.73;;;4.10;99.70;;;;;;5067510;28;20025;-69
2021/01/15 01:00:39;;;;;;;21.50;11.75;;;4.00;99.70;;;;;;5054033;28;20025;-69
2021/01/15 01:03:08;;;;;;;20.75;11.32;;;4.10;99.80;;;;;;5073752;28;20119;-69
2021/01/15 01:05:34;;;;;;;19.08;11.13;;;4.20;99.50;;;;;;5073111;28;20121;-70
2021/01/15 01:08:00;;;;;;;23.77;11.18;;;4.20;99.40;;;;;;5073106;28;20480;-69
2021/01/15 01:10:26;;;;;;;21.80;11.55;;;4.10;99.50;;;;;;5072915;28;20032;-69
2021/01/15 01:12:52;;;;;;;24.00;11.93;;;4.20;99.40;;;;;;5072978;28;20044;-70
2021/01/15 01:15:17;;;;;;;25.08;11.63;;;4.10;99.40;;;;;;5073521;28;20047;-70
2021/01/15 01:17:43;;;;;;;19.15;11.15;;;4.10;99.50;;;;;;5071836;28;20040;-70
2021/01/15 01:20:11;;;;;;;23.13;11.38;;;4.10;99.50;;;;;;5072766;28;20482;-70
2021/01/15 01:22:37;;;;;;;20.98;11.02;;;4.00;99.50;;;;;;5072532;28;20032;-71
2021/01/15 01:25:04;;;;;;;24.90;12.50;;;4.00;99.60;;;;;;5072534;28;20034;-70
2021/01/15 01:27:30;;;;;;;21.10;11.17;;;4.10;99.70;;;;;;5071661;28;20450;-69
2021/01/15 01:29:56;;;;;;;24.48;12.82;;;4.10;99.50;;;;;;5074215;28;20050;-69
2021/01/15 01:32:21;;;;;;;19.38;10.95;;;4.00;99.50;;;;;;5071369;28;20380;-69
2021/01/15 01:34:47;;;;;;;21.70;11.02;;;4.00;99.70;;;;;;5072417;28;20040;-69
2021/01/15 01:37:13;;;;;;;23.02;11.43;;;3.90;99.60;;;;;;5071429;28;20077;-70
2021/01/15 01:39:38;;;;;;;20.50;11.68;;;3.90;99.60;;;;;;5072311;28;20463;-69
2021/01/15 01:42:04;;;;;;;19.92;10.77;;;3.90;99.60;;;;;;5074078;28;20013;-70
2021/01/15 01:44:30;;;;;;;21.30;11.02;;;3.90;99.60;;;;;;5072567;28;20028;-70
2021/01/15 01:46:55;;;;;;;20.13;9.90;;;3.90;99.70;;;;;;5072373;28;20457;-70
2021/01/15 01:49:22;;;;;;;17.55;9.88;;;3.80;99.60;;;;;;5072423;28;20038;-69
2021/01/15 01:51:49;;;;;;;19.98;10.90;;;3.80;99.70;;;;;;5072431;28;20450;-69
2021/01/15 01:54:15;;;;;;;21.37;10.93;;;3.80;99.70;;;;;;5072821;28;20052;-69
2021/01/15 01:56:42;;;;;;;19.50;10.50;;;3.80;99.70;;;;;;5072057;28;20036;-70
2021/01/15 01:59:11;;;;;;;23.42;10.15;;;3.80;99.70;;;;;;5072243;28;20370;-70
2021/01/15 02:01:37;;;;;;;21.58;10.70;;;3.90;99.70;;;;;;5072203;28;20020;-69
2021/01/15 02:04:04;;;;;;;19.30;10.45;;;3.90;99.70;;;;;;5072168;28;20417;-70
2021/01/15 02:06:32;;;;;;;21.92;11.73;;;3.90;99.60;;;;;;5071959;28;20377;-70
2021/01/15 02:08:58;;;;;;;20.23;10.77;;;3.90;99.60;;;;;;5072572;28;20029;-70
2021/01/15 02:11:51;;;;;;;20.20;9.98;;;3.90;99.60;;;;;;5071820;28;20358;-69
2021/01/15 02:14:42;;;;;;;17.00;9.52;;;3.90;99.60;;;;;;5067676;28;20040;-70
2021/01/15 02:17:12;;;;;;;24.95;9.65;;;3.90;99.50;;;;;;5071960;28;20090;-70
2021/01/15 02:19:52;;;;;;;22.85;11.57;;;3.90;99.60;;;;;;5071924;28;20102;-69
2021/01/15 02:22:37;;;;;;;18.88;9.68;;;3.90;99.70;;;;;;5071958;28;20039;-70
2021/01/15 02:25:10;;;;;;;21.15;9.52;;;3.90;99.50;;;;;;5071664;28;20504;-69
2021/01/15 02:28:03;;;;;;;20.50;9.82;;;3.90;99.40;;;;;;5072166;28;20028;-70
2021/01/15 02:30:40;;;;;;;15.85;8.63;;;3.90;99.50;;;;;;5071462;28;20028;-68
2021/01/15 02:33:33;;;;;;;18.15;9.43;;;3.90;99.40;;;;;;5073026;28;20094;-69
2021/01/15 02:36:15;;;;;;;18.63;9.23;;;4.00;99.50;;;;;;5071679;28;20032;-70
2021/01/15 02:39:22;;;;;;;19.60;10.77;;;3.90;99.50;;;;;;5071688;28;20525;-69
2021/01/15 02:41:48;;;;;;;21.73;9.80;;;4.00;99.40;;;;;;5071868;28;20040;-68
2021/01/15 02:44:16;;;;;;;16.85;9.40;;;4.00;99.30;;;;;;5070839;28;20584;-69
2021/01/15 02:46:56;;;;;;;14.13;8.55;;;4.00;99.20;;;;;;5070581;28;20085;-70
2021/01/15 02:49:22;;;;;;;15.77;8.38;;;4.00;99.20;;;;;;5070285;28;20029;-70
2021/01/15 02:51:48;;;;;;;19.05;10.18;;;3.90;99.20;;;;;;5071412;28;20036;-70
2021/01/15 02:54:14;;;;;;;19.08;9.45;;;4.00;99.40;;;;;;5072901;28;20443;-70
2021/01/15 02:56:40;;;;;;;17.70;8.80;;;4.00;99.20;;;;;;5071486;28;20059;-69
2021/01/15 02:59:07;;;;;;;19.02;8.15;;;4.00;99.20;;;;;;5071467;28;20124;-70
2021/01/15 03:02:08;;;;;;;17.63;9.05;;;3.90;99.20;;;;;;5071411;28;20374;-69
2021/01/15 03:04:55;;;;;;;15.70;8.43;;;3.90;99.20;;;;;;5069795;28;20113;-70
2021/01/15 03:07:22;;;;;;;;;;;4.00;99.20;;;;;;5071914;28;20033;-70
2021/01/15 03:09:49;;;;;;;17.55;7.72;;;3.90;99.00;;;;;;5071336;28;19917;-70
2021/01/15 03:12:16;;;;;;;14.68;8.50;;;4.00;99.00;;;;;;5072870;28;20052;-70
2021/01/15 03:14:44;;;;;;;17.27;8.85;;;4.00;99.00;;;;;;5071488;28;20033;-69
2021/01/15 03:17:12;;;;;;;16.92;8.35;;;4.10;98.90;;;;;;5071080;28;20028;-70
2021/01/15 03:19:38;;;;;;;16.35;8.57;;;4.10;98.80;;;;;;5069957;28;20037;-69
2021/01/15 03:22:15;;;;;;;15.88;8.30;;;4.10;98.80;;;;;;5071107;28;20029;-70
2021/01/15 03:24:55;;;;;;;16.58;8.10;;;4.20;98.80;;;;;;5068218;28;20021;-69
2021/01/15 03:27:22;;;;;;;15.43;8.02;;;4.10;98.70;;;;;;5051629;28;20116;-71
2021/01/15 03:29:48;;;;;;;18.42;8.13;;;4.00;98.80;;;;;;5050148;28;20459;-70
2021/01/15 03:32:14;;;;;;;17.17;8.15;;;4.00;98.70;;;;;;5049934;28;20033;-69
2021/01/15 03:34:40;;;;;;;15.75;8.13;;;3.90;98.80;;;;;;5051240;28;20446;-70
2021/01/15 03:37:06;;;;;;;15.90;8.02;;;3.90;98.80;;;;;;5051094;28;20055;-69
2021/01/15 03:39:31;;;;;;;15.60;8.18;;;4.00;98.70;;;;;;5048469;28;20041;-70
2021/01/15 03:41:57;;;;;;;19.27;8.65;;;4.00;98.70;;;;;;5052609;28;20343;-70
2021/01/15 03:44:23;;;;;;;18.10;8.55;;;4.00;98.60;;;;;;5051092;28;20136;-69
2021/01/15 03:46:53;;;;;;;15.10;7.40;;;4.00;98.60;;;;;;5062061;28;20091;-71
2021/01/15 03:49:18;;;;;;;15.25;7.28;;;4.00;98.60;;;;;;5063842;28;20518;-70
2021/01/15 03:51:44;;;;;;;19.02;7.97;;;4.00;98.60;;;;;;5050849;28;20113;-70
2021/01/15 03:54:10;;;;;;;18.73;8.30;;;4.00;98.60;;;;;;5052446;28;20024;-70
2021/01/15 03:56:35;;;;;;;17.60;8.75;;;3.90;98.60;;;;;;5072089;28;20119;-70
2021/01/15 03:59:01;;;;;;;18.38;8.88;;;4.00;98.70;;;;;;5074574;28;20369;-69
2021/01/15 04:01:27;;;;;;;15.32;7.60;;;3.90;98.50;;;;;;5074464;28;20094;-69
2021/01/15 04:03:52;;;;;;;15.10;7.90;;;4.00;98.60;;;;;;5074293;28;20020;-69
2021/01/15 04:06:25;;;;;;;16.10;8.35;;;4.00;98.50;;;;;;5075892;28;20021;-69
2021/01/15 04:08:51;;;;;;;14.02;6.97;;;3.90;98.50;;;;;;5074442;28;20032;-69
2021/01/15 04:11:17;;;;;;;16.00;7.95;;;3.90;98.50;;;;;;5073210;28;20037;-70
2021/01/15 04:13:43;;;;;;;22.83;8.35;;;3.90;98.50;;;;;;5074267;28;20048;-70
2021/01/15 04:16:13;;;;;;;16.17;8.32;;;3.90;98.60;;;;;;5074406;28;20033;-70
2021/01/15 04:18:38;;;;;;;14.35;8.10;;;3.90;98.50;;;;;;5074174;28;20453;-69
2021/01/15 04:21:05;;;;;;;16.27;8.07;;;4.00;98.50;;;;;;5075688;28;20493;-69
2021/01/15 04:23:31;;;;;;;17.88;8.85;;;4.00;98.30;;;;;;5073044;28;20345;-69
2021/01/15 04:25:57;;;;;;;13.93;7.00;;;4.00;98.30;;;;;;5061386;28;20045;-70
2021/01/15 04:28:23;;;;;;;16.70;7.45;;;3.90;98.30;;;;;;5053920;28;20029;-69
2021/01/15 04:30:49;;;;;;;15.57;7.35;;;4.00;98.30;;;;;;5053912;28;20029;-69
2021/01/15 04:33:14;;;;;;;17.02;7.40;;;4.00;98.20;;;;;;5055533;28;20036;-70
2021/01/15 04:35:40;;;;;;;14.07;6.93;;;4.00;98.30;;;;;;5053483;28;20533;-69
2021/01/15 04:38:06;;;;;;;17.73;8.52;;;3.90;98.10;;;;;;5067071;28;20068;-69
2021/01/15 04:40:31;;;;;;;17.35;8.10;;;4.00;98.20;;;;;;5072603;28;20037;-69
2021/01/15 04:43:00;;;;;;;17.27;7.55;;;4.00;98.10;;;;;;5073626;28;20512;-69
2021/01/15 04:45:27;;;;;;;19.10;8.50;;;3.90;98.10;;;;;;5075090;28;20086;-70
2021/01/15 04:47:54;;;;;;;16.58;8.55;;;4.00;98.10;;;;;;5073563;28;20419;-69
2021/01/15 04:50:20;;;;;;;14.73;7.15;;;3.90;98.00;;;;;;5073573;28;20044;-70
2021/01/15 04:52:53;;;;;;;14.82;7.60;;;4.00;98.00;;;;;;5073400;28;20045;-69
2021/01/15 04:55:25;;;;;;;14.68;7.57;;;4.00;98.00;;;;;;5073462;28;20021;-70
2021/01/15 04:57:53;;;;;;;14.50;7.90;;;4.10;98.00;;;;;;5072258;28;20067;-68
2021/01/15 05:00:25;;;;;;;17.50;8.35;;;4.10;97.90;;;;;;5073960;28;20062;-69
2021/01/15 05:02:51;;;;;;;16.80;7.55;;;4.00;97.90;;;;;;5072275;28;20545;-69
2021/01/15 05:05:24;;;;;;;15.65;7.22;;;3.90;98.00;;;;;;5072986;28;20498;-69
2021/01/15 05:08:10;;;;;;;17.23;7.43;;;3.90;98.00;;;;;;5073238;28;20090;-69
2021/01/15 05:10:41;;;;;;;17.33;8.10;;;4.00;97.90;;;;;;5072939;28;20617;-69
2021/01/15 05:13:08;;;;;;;17.13;8.07;;;4.00;97.90;;;;;;5071852;28;20109;-69
2021/01/15 05:15:36;;;;;;;19.77;8.63;;;4.00;97.90;;;;;;5072804;28;20025;-69
2021/01/15 05:18:12;;;;;;;17.30;7.75;;;4.10;97.90;;;;;;5073526;28;20108;-70
2021/01/15 05:20:38;;;;;;;16.45;7.18;;;4.10;97.80;;;;;;5071760;28;20123;-70
2021/01/15 05:23:06;;;;;;;14.43;7.60;;;4.00;97.80;;;;;;5072899;28;20060;-69
2021/01/15 05:25:33;;;;;;;16.05;7.38;;;3.80;97.70;;;;;;5071593;28;20472;-70
2021/01/15 05:27:59;;;;;;;14.80;7.77;;;3.80;97.80;;;;;;5072733;28;20075;-69
2021/01/15 05:30:27;;;;;;;14.40;7.15;;;3.90;97.80;;;;;;5074382;28;20564;-70
2021/01/15 05:32:54;;;;;;;15.63;7.97;;;3.90;97.70;;;;;;5072896;28;20036;-69
2021/01/15 05:35:21;;;;;;;13.50;7.70;;;4.00;97.80;;;;;;5072794;28;20257;-70
2021/01/15 05:37:58;;;;;;;19.58;7.72;;;4.00;97.70;;;;;;5072329;28;20047;-69
2021/01/15 05:40:42;;;;;;;20.15;9.00;;;4.00;97.60;;;;;;5072606;28;20158;-69
2021/01/15 05:43:19;;;;;;;18.23;8.63;;;4.00;97.80;;;;;;5072380;28;20466;-69
2021/01/15 05:46:14;;;;;;;15.55;7.85;;;4.10;97.80;;;;;;5072506;28;20108;-69
2021/01/15 05:48:45;;;;;;;16.10;7.60;;;4.10;97.80;;;;;;5072507;28;20488;-69
2021/01/15 05:51:30;;;;;;;17.77;8.52;;;4.10;97.80;;;;;;5073952;28;20028;-70
2021/01/15 05:53:57;;;;;;;19.83;8.05;;;4.10;97.80;;;;;;5072545;28;20478;-71
2021/01/15 05:56:24;;;;;;;17.23;8.50;;;4.00;97.70;;;;;;5072253;28;20115;-69
2021/01/15 05:59:20;;;;;;;16.17;7.72;;;4.00;97.90;;;;;;5072161;28;20032;-70
2021/01/15 06:01:58;;;;;;;20.85;8.45;;;4.10;98.00;;;;;;5068435;28;20463;-71
2021/01/15 06:04:33;;;;;;;15.20;8.52;;;4.10;98.00;;;;;;5072296;28;20035;-69
2021/01/15 06:07:01;;;;;;;19.00;9.32;;;4.10;97.90;;;;;;5073659;28;20020;-69
2021/01/15 06:09:27;;;;;;;19.55;9.23;;;4.20;98.00;;;;;;5073486;28;20082;-69
2021/01/15 06:12:02;;;;;;;19.33;9.48;;;4.20;98.00;;;;;;5071167;28;20385;-69
2021/01/15 06:14:27;;;;;;;21.75;9.77;;;4.10;97.90;;;;;;5071361;28;20036;-69
2021/01/15 06:17:09;;;;;;;15.90;9.07;;;4.20;98.20;;;;;;5071255;28;20101;-70
2021/01/15 06:20:03;;;;;;;22.95;10.60;;;4.40;98.10;;;;;;5071791;28;20422;-70
2021/01/15 06:22:37;;;;;;;21.30;11.00;;;4.30;98.00;;;;;;5070445;28;20067;-70
2021/01/15 06:25:24;;;;;;;23.30;10.68;;;4.20;97.90;;;;;;5071643;28;20024;-70
2021/01/15 06:27:57;;;;;;;22.50;10.88;;;4.20;98.00;;;;;;5071595;28;20034;-70
2021/01/15 06:30:32;;;;;;;24.38;12.02;;;4.10;98.10;;;;;;5073233;28;20393;-69
2021/01/15 06:33:14;;;;;;;23.83;11.75;;;4.20;98.00;;;;;;5071402;28;20033;-71
2021/01/15 06:35:43;;;;;;;22.90;11.25;;;4.00;98.10;;;;;;5071680;28;20534;-70
2021/01/15 06:38:13;;;;;;;27.92;12.13;;;4.20;98.20;;;;;;5071705;28;20455;-71
2021/01/15 06:40:47;;;;;;;25.08;12.70;;;4.20;98.20;;;;;;5071946;28;20035;-71
2021/01/15 06:43:25;;;;;;;25.38;12.98;;;4.20;98.20;;;;;;5071883;28;20079;-72
2021/01/15 06:46:03;;;;;;;21.40;11.45;;;4.20;98.10;;;;;;5071962;28;20098;-67
2021/01/15 06:48:36;;;;;;;25.48;11.82;;;4.30;98.30;;;;;;5071438;28;20044;-69
2021/01/15 06:51:03;;;;;;;31.65;13.05;;;4.30;98.30;;;;;;5073559;28;20021;-69
2021/01/15 06:53:30;;;;;;;24.40;12.07;;;4.30;98.40;;;;;;5071239;28;20126;-70
2021/01/15 06:56:00;;;;;;;24.88;12.20;;;4.30;98.30;;;;;;5071540;28;20044;-70
2021/01/15 06:58:30;;;;;;;27.30;13.50;;;4.30;98.20;;;;;;5072912;28;20618;-78
2021/01/15 07:01:12;;;;;;;24.83;13.63;;;4.20;98.10;;;;;;5072204;28;20033;-71
2021/01/15 07:03:55;;;;;;;22.77;12.20;;;4.20;98.20;;;;;;5071168;28;20089;-71
2021/01/15 07:06:27;;;;;;;24.88;12.40;;;4.20;98.10;;;;;;5073217;28;20191;-71
2021/01/15 07:08:57;;;;;;;22.20;11.65;;;4.30;98.30;;;;;;5071542;28;20040;-70
2021/01/15 07:11:25;;;;;;;26.30;12.18;;;4.40;98.20;;;;;;5071710;28;20040;-72
2021/01/15 07:13:56;;;;;;;21.73;11.80;;;4.40;98.30;;;;;;5071368;28;20089;-72
2021/01/15 07:16:40;;;;;;;27.27;12.25;;;4.30;98.30;;;;;;5070519;28;20041;-72
2021/01/15 07:19:05;;;;;;;24.98;12.20;;;4.30;98.30;;;;;;5071625;28;20043;-72
2021/01/15 07:21:39;;;;;;;25.58;12.13;;;4.30;98.30;;;;;;5066386;28;20033;-74
2021/01/15 07:24:09;;;;;;;22.17;12.15;;;4.20;98.30;;;;;;5073082;28;20013;-72
2021/01/15 07:26:41;;;;;;;25.05;12.50;;;4.30;98.40;;;;;;5071592;28;20512;-70
2021/01/15 07:29:10;;;;;;;23.85;13.27;;;4.30;98.50;;;;;;5072163;28;20033;-70
2021/01/15 07:31:41;;;;;;;26.80;12.98;;;4.30;98.40;;;;;;5075396;28;20044;-69
2021/01/15 07:34:14;;;;;;;22.40;12.15;;;4.20;98.50;;;;;;5075392;28;20041;-69
2021/01/15 07:36:40;;;;;;;27.27;12.85;;;4.20;98.60;;;;;;5075124;28;20028;-69
2021/01/15 07:39:09;;;;;;;26.38;13.32;;;4.40;98.60;;;;;;5076528;28;20170;-70
2021/01/15 07:41:47;;;;;;;23.42;11.93;;;4.10;98.30;;;;;;5074781;28;20040;-71
2021/01/15 07:44:25;;;;;;;;;;;4.20;98.30;;;;;;5075382;28;20040;-69
2021/01/15 07:46:52;;;;;;;30.63;12.75;;;4.20;98.40;;;;;;5074925;28;20347;-70
2021/01/15 07:49:19;;;;;;;26.52;12.35;;;4.40;98.70;;;;;;5074760;28;20037;-70
2021/01/15 07:52:10;;;;;;;31.25;12.75;;;4.30;98.60;;;;;;5072354;28;20044;-70
2021/01/15 07:54:50;;;;;;;32.35;15.63;;;4.10;98.60;;;;;;5055680;28;20200;-70
2021/01/15 07:57:19;;;;;;;25.42;12.93;;;4.10;98.70;;;;;;5076382;28;20204;-69
2021/01/15 07:59:48;;;;;;;26.40;13.88;;;4.20;99.00;;;;;;5074686;28;20335;-69
2021/01/15 08:02:18;;;;;;;31.70;13.82;;;4.20;98.80;;;;;;5074616;28;20450;-70
2021/01/15 08:04:45;;;;;;;23.58;13.63;;;4.20;98.70;;;;;;5074779;28;20040;-69
2021/01/15 08:07:28;;;;;;;33.40;13.60;;;4.20;98.70;;;;;;5074636;28;20032;-70
2021/01/15 08:09:54;;;;;;;37.42;16.23;;;4.20;98.80;;;;;;5074578;28;20132;-69
2021/01/15 08:12:20;;;;;;;29.30;13.10;;;4.20;98.80;;;;;;5074925;28;20488;-70
2021/01/15 08:14:46;;;;;;;28.30;14.80;;;4.20;98.90;;;;;;5073303;28;20051;-70
2021/01/15 08:17:14;;;;;;;28.13;13.45;;;4.20;98.90;;;;;;5074265;28;20029;-70
2021/01/15 08:19:41;;;;;;;;;;;4.20;98.90;;;;;;5074820;28;20032;-73
2021/01/15 08:22:08;;;;;;;25.15;13.27;;;4.20;98.90;;;;;;5073152;28;20011;-72
2021/01/15 08:24:50;;;;;;;26.13;13.40;;;4.30;98.90;;;;;;5073949;28;20028;-73
2021/01/15 08:27:21;;;;;;;31.85;15.07;;;4.20;98.90;;;;;;5075654;28;20413;-71
2021/01/15 08:29:48;;;;;;;35.60;15.75;;;4.20;98.90;;;;;;5074314;28;20045;-71
2021/01/15 08:32:15;;;;;;;32.17;14.67;;;4.10;98.90;;;;;;5073831;28;20043;-74
2021/01/15 08:34:41;;;;;;;26.60;14.75;;;4.10;99.00;;;;;;5074137;28;20759;-75
2021/01/15 08:37:12;;;;;;;32.72;15.10;;;4.10;99.00;;;;;;5072927;28;20043;-72
2021/01/15 08:39:53;;;;;;;32.03;15.75;;;4.10;99.10;;;;;;5073191;28;20086;-73
2021/01/15 08:42:20;;;;;;;31.83;15.63;;;4.10;99.10;;;;;;5073812;28;20462;-71
2021/01/15 08:44:50;;;;;;;30.10;15.32;;;4.10;99.10;;;;;;5073734;28;20053;-72
2021/01/15 08:47:17;;;;;;;30.58;15.15;;;4.20;99.00;;;;;;5072531;28;20052;-75
2021/01/15 08:49:54;;;;;;;31.23;16.30;;;4.30;99.10;;;;;;5073699;28;20040;-73
2021/01/15 08:52:29;;;;;;;35.77;16.57;;;4.20;99.10;;;;;;5073623;28;20044;-72
2021/01/15 08:54:55;;;;;;;31.05;15.18;;;4.20;99.10;;;;;;5072281;28;20029;-71
2021/01/15 08:57:26;;;;;;;29.05;14.32;;;4.10;98.90;;;;;;5057534;28;20359;-73
2021/01/15 08:59:52;;;;;;;35.63;14.65;;;4.20;99.20;;;;;;5072583;28;20119;-73
2021/01/15 09:02:20;;;;;;;31.60;15.80;;;4.20;99.20;;;;;;5073247;28;20178;-70
2021/01/15 09:04:47;;;;;;;28.45;15.20;;;4.00;99.20;;;;;;5072240;28;20044;-70
2021/01/15 09:07:15;;;;;;;31.53;15.97;;;4.00;99.30;;;;;;5072290;28;20025;-70
2021/01/15 09:09:41;;;;;;;29.48;15.43;;;4.10;99.40;;;;;;5073265;28;20078;-71
2021/01/15 09:12:10;;;;;;;37.28;15.90;;;4.10;99.40;;;;;;5074897;28;20103;-72
2021/01/15 09:14:36;;;;;;;;;;;4.10;99.40;;;;;;5073639;28;20087;-70
2021/01/15 09:17:11;;;;;;;35.28;15.88;;;4.10;99.50;;;;;;5073272;28;19912;-70
2021/01/15 09:19:37;;;;;;;30.48;15.48;;;4.10;99.60;;;;;;5073237;28;20032;-69
2021/01/15 09:22:09;;;;;;;32.78;16.13;;;4.00;99.50;;;;;;5071730;28;20021;-69
2021/01/15 09:24:36;;;;;;;33.20;16.17;;;4.10;99.50;;;;;;5073443;28;20039;-71
2021/01/15 09:27:03;;;;;;;43.33;15.90;;;4.10;99.60;;;;;;5074651;28;20045;-72
2021/01/15 09:29:29;;;;;;;34.03;17.08;;;4.20;99.50;;;;;;5072003;28;20060;-72
2021/01/15 09:31:56;;;;;;;39.20;15.55;;;4.20;99.60;;;;;;5071756;28;20099;-72
2021/01/15 09:34:23;;;;;;;37.05;16.20;;;4.20;99.60;;;;;;5072458;28;20055;-73
2021/01/15 09:36:51;;;;;;;34.30;16.07;;;4.20;99.60;;;;;;5072837;28;20389;-70
2021/01/15 09:39:18;;;;;;;29.13;15.23;;;4.30;99.50;;;;;;5074199;28;20147;-72
2021/01/15 09:41:50;;;;;;;31.60;15.50;;;4.20;99.50;;;;;;5072621;28;20058;-76
2021/01/15 09:44:17;;;;;;;29.83;14.80;;;4.20;99.40;;;;;;5071617;28;20036;-69
2021/01/15 09:46:44;;;;;;;30.77;15.32;;;4.20;99.40;;;;;;5072723;28;20079;-69
2021/01/15 09:49:10;;;;;;;34.50;15.85;;;4.30;99.50;;;;;;5072221;28;20082;-71
2021/01/15 09:51:36;;;;;;;31.30;15.50;;;4.30;99.60;;;;;;5072461;28;20033;-70
2021/01/15 09:54:01;;;;;;;34.05;16.02;;;4.20;99.40;;;;;;5073267;28;20028;-71
2021/01/15 09:56:33;;;;;;;32.67;15.07;;;4.20;99.40;;;;;;5072636;28;20047;-69
2021/01/15 09:59:02;;;;;;;31.15;15.18;;;4.20;99.40;;;;;;5072524;28;20044;-69
2021/01/15 10:01:30;;;;;;;29.75;14.15;;;4.40;99.40;;;;;;5071396;28;20035;-70
2021/01/15 10:03:57;;;;;;;29.13;14.15;;;4.50;99.20;;;;;;5072234;28;20119;-69
2021/01/15 10:06:24;;;;;;;26.88;14.13;;;4.30;99.00;;;;;;5073729;28;20115;-69
2021/01/15 10:08:50;;;;;;;28.10;14.10;;;4.30;99.00;;;;;;5072452;28;20035;-68
2021/01/15 10:11:20;;;;;;;28.02;14.27;;;4.20;99.10;;;;;;5072149;28;20028;-69
2021/01/15 10:13:47;;;;;;;32.30;14.63;;;4.40;99.20;;;;;;5054504;28;20439;-75
2021/01/15 10:16:12;;;;;;;24.75;13.43;;;4.30;99.00;;;;;;5072315;28;20041;-75
2021/01/15 10:18:39;;;;;;;23.95;13.68;;;4.30;98.90;;;;;;5070965;28;20055;-74
2021/01/15 10:21:04;;;;;;;28.52;13.85;;;4.40;98.90;;;;;;5073940;28;20029;-79
2021/01/15 10:23:33;;;;;;;30.20;13.93;;;4.50;98.70;;;;;;5070862;28;20033;-71
2021/01/15 10:25:59;;;;;;;25.48;12.35;;;4.50;98.60;;;;;;5072001;28;20064;-79
2021/01/15 10:28:25;;;;;;;23.60;12.18;;;4.50;98.50;;;;;;5071995;28;20423;-78
2021/01/15 10:30:50;;;;;;;21.10;11.40;;;4.50;98.40;;;;;;5071479;28;20139;-78
2021/01/15 10:33:16;;;;;;;21.52;11.57;;;4.50;98.20;;;;;;5073419;28;20032;-68
2021/01/15 10:35:41;;;;;;;25.95;11.05;;;4.60;98.10;;;;;;5071865;28;20075;-68
2021/01/15 10:38:07;;;;;;;24.17;12.10;;;4.50;98.10;;;;;;5071914;28;20044;-69
2021/01/15 10:40:33;;;;;;;21.27;10.95;;;4.60;98.00;;;;;;5072038;28;20036;-69
2021/01/15 10:42:59;;;;;;;23.40;11.25;;;4.50;97.70;;;;;;5072295;28;20032;-68
2021/01/15 10:45:24;;;;;;;19.92;10.77;;;4.50;97.80;;;;;;5074098;28;20020;-70
2021/01/15 10:47:50;;;;;;;23.75;11.25;;;4.50;98.00;;;;;;5072506;28;20032;-68
2021/01/15 10:50:17;;;;;;;21.80;10.95;;;4.40;97.70;;;;;;5069971;28;20533;-70
2021/01/15 10:52:50;;;;;;;22.95;10.43;;;4.40;97.80;;;;;;5070809;28;20070;-69
2021/01/15 10:55:15;;;;;;;22.77;10.45;;;4.50;97.80;;;;;;5070987;28;20051;-70
2021/01/15 10:57:41;;;;;;;17.70;10.40;;;4.40;97.50;;;;;;5071753;28;20036;-69
2021/01/15 11:00:07;;;;;;;18.58;9.65;;;4.30;97.40;;;;;;5073318;28;20154;-69
2021/01/15 11:02:33;;;;;;;18.42;9.70;;;4.20;97.00;;;;;;5071724;28;20033;-69
2021/01/15 11:04:59;;;;;;;16.83;9.68;;;4.20;97.10;;;;;;5073053;28;20028;-71
2021/01/15 11:07:24;;;;;;;21.77;9.73;;;4.30;97.30;;;;;;5076167;28;20525;-70
2021/01/15 11:09:50;;;;;;;18.63;8.73;;;4.20;96.80;;;;;;5075592;28;20040;-70
2021/01/15 11:12:19;;;;;;;19.95;10.05;;;4.20;96.80;;;;;;5077163;28;20052;-71
2021/01/15 11:14:44;;;;;;;19.33;9.57;;;4.10;97.00;;;;;;5075673;28;20296;-70
2021/01/15 11:17:10;;;;;;;20.50;10.50;;;4.00;97.00;;;;;;5075385;28;20175;-69
2021/01/15 11:19:35;;;;;;;20.75;10.55;;;4.10;97.30;;;;;;5074016;28;20083;-70
2021/01/15 11:22:01;;;;;;;21.13;10.18;;;4.20;97.30;;;;;;5075989;28;20347;-78
2021/01/15 11:24:27;;;;;;;20.33;10.05;;;4.20;97.30;;;;;;5075804;28;20044;-72
2021/01/15 11:26:52;;;;;;;23.13;10.45;;;4.20;97.20;;;;;;5075629;28;20109;-73
2021/01/15 11:29:18;;;;;;;16.83;8.60;;;4.20;97.10;;;;;;5074223;28;20093;-72
2021/01/15 11:31:44;;;;;;;18.63;9.18;;;4.20;96.90;;;;;;5075033;28;20524;-73
2021/01/15 11:34:10;;;;;;;19.25;9.40;;;4.20;96.90;;;;;;5075213;28;20036;-72
2021/01/15 11:36:36;;;;;;;19.48;8.88;;;4.20;96.90;;;;;;5075185;28;20028;-71
2021/01/15 11:39:08;;;;;;;16.98;8.88;;;4.10;96.90;;;;;;5075536;28;20056;-74
2021/01/15 11:41:34;;;;;;;15.75;8.93;;;4.10;97.10;;;;;;5075228;28;20394;-70
2021/01/15 11:44:00;;;;;;;15.77;9.85;;;4.10;97.00;;;;;;5074986;28;20037;-70
2021/01/15 11:46:26;;;;;;;20.88;9.07;;;4.10;97.00;;;;;;5074773;28;20028;-69
2021/01/15 11:48:51;;;;;;;21.75;9.80;;;4.10;97.00;;;;;;5074531;28;20459;-70
2021/01/15 11:51:17;;;;;;;17.35;9.32;;;4.10;97.00;;;;;;5076273;28;20399;-69
2021/01/15 11:53:43;;;;;;;19.95;10.27;;;4.10;97.10;;;;;;5074845;28;20071;-72
2021/01/15 11:56:09;;;;;;;20.75;10.10;;;4.10;97.20;;;;;;5074968;28;20032;-70
2021/01/15 11:58:36;;;;;;;21.10;9.88;;;4.10;97.20;;;;;;5074544;28;20028;-69
2021/01/15 12:01:02;;;;;;;21.17;10.95;;;4.10;97.20;;;;;;5074556;28;20292;-70
2021/01/15 12:03:28;;;;;;;21.58;10.48;;;4.10;97.10;;;;;;5074545;28;20024;-69
2021/01/15 12:05:54;;;;;;;18.05;8.95;;;4.20;97.10;;;;;;5075978;28;20040;-69
2021/01/15 12:08:21;;;;;;;16.92;9.50;;;4.20;97.00;;;;;;5074754;28;20339;-76
2021/01/15 12:10:54;;;;;;;18.70;8.65;;;4.10;96.80;;;;;;5073271;28;20051;-75
2021/01/15 12:13:20;;;;;;;16.50;8.38;;;4.10;96.80;;;;;;5074231;28;20105;-77
2021/01/15 12:15:50;;;;;;;20.23;9.93;;;4.10;96.80;;;;;;5072195;28;20025;-76
2021/01/15 12:18:16;;;;;;;21.27;9.88;;;4.00;96.90;;;;;;5075027;28;20027;-74
2021/01/15 12:20:42;;;;;;;16.30;8.43;;;4.00;96.90;;;;;;5073799;28;20032;-79
2021/01/15 12:23:08;;;;;;;17.67;9.05;;;4.00;96.70;;;;;;5074299;28;20080;-75
2021/01/15 12:25:38;;;;;;;17.83;9.35;;;4.00;96.60;;;;;;5074114;28;20028;-76
2021/01/15 12:28:14;;;;;;;18.67;9.60;;;4.00;96.70;;;;;;5074230;28;20095;-73
2021/01/15 12:30:41;;;;;;;19.77;10.18;;;4.00;96.80;;;;;;5072787;28;20040;-78
2021/01/15 12:33:15;;;;;;;18.75;8.98;;;4.10;96.90;;;;;;5075706;28;20028;-80
2021/01/15 12:35:42;;;;;;;20.08;9.80;;;4.00;96.60;;;;;;5073851;28;20052;-73
2021/01/15 12:38:10;;;;;;;17.40;9.38;;;4.00;96.70;;;;;;5073011;28;20600;-73
2021/01/15 12:40:36;;;;;;;15.15;8.68;;;4.10;96.80;;;;;;5072634;28;20025;-72
2021/01/15 12:43:07;;;;;;;18.38;8.98;;;4.00;96.40;;;;;;5072813;28;20029;-76
2021/01/15 12:45:38;;;;;;;20.92;9.45;;;3.90;96.40;;;;;;5073350;28;20051;-76
2021/01/15 12:48:05;;;;;;;17.75;9.13;;;4.00;96.50;;;;;;5075254;28;20021;-72
2021/01/15 12:50:31;;;;;;;20.90;8.98;;;4.00;96.50;;;;;;5073354;28;20386;-71
2021/01/15 12:52:58;;;;;;;16.45;8.93;;;4.00;96.00;;;;;;5073561;28;20127;-70
2021/01/15 12:55:25;;;;;;;16.83;8.77;;;4.00;96.10;;;;;;5073925;28;20032;-70